sensor_id;sensor_type;location;lat;lon;timestamp;P1;durP1;ratioP1;P2;durP2;ratioP2
50906;SDS011;36882;27.680;85.304;2022-07-12T00:01:23;21.60;;;13.52;;
50906;SDS011;36882;27.680;85.304;2022-07-12T00:03:54;18.25;;;14.38;;
50906;SDS011;36882;27.680;85.304;2022-07-12T00:06:40;18.55;;;14.05;;
50906;SDS011;36882;27.680;85.304;2022-07-12T00:09:11;23.48;;;15.93;;
50906;SDS011;36882;27.680;85.304;2022-07-12T00:11:42;26.95;;;19.13;;
50906;SDS011;36882;27.680;85.304;2022-07-12T00:14:13;23.42;;;15.80;;
50906;SDS011;36882;27.680;85.304;2022-07-12T00:16:44;23.02;;;16.15;;
50906;SDS011;36882;27.680;85.304;2022-07-12T00:19:15;21.95;;;16.08;;
50906;SDS011;36882;27.680;85.304;2022-07-12T00:21:45;18.70;;;14.35;;
50906;SDS011;36882;27.680;85.304;2022-07-12T00:24:18;16.70;;;14.93;;
50906;SDS011;36882;27.680;85.304;2022-07-12T00:26:48;17.75;;;13.85;;
50906;SDS011;36882;27.680;85.304;2022-07-12T00:29:18;20.15;;;15.30;;
50906;SDS011;36882;27.680;85.304;2022-07-12T00:31:49;21.25;;;13.98;;
50906;SDS011;36882;27.680;85.304;2022-07-12T00:34:20;20.27;;;15.18;;
50906;SDS011;36882;27.680;85.304;2022-07-12T00:36:50;20.27;;;14.18;;
50906;SDS011;36882;27.680;85.304;2022-07-12T00:39:20;19.90;;;15.93;;
50906;SDS011;36882;27.680;85.304;2022-07-12T00:41:51;17.33;;;14.52;;
50906;SDS011;36882;27.680;85.304;2022-07-12T00:44:22;24.63;;;15.38;;
50906;SDS011;36882;27.680;85.304;2022-07-12T00:46:55;13.70;;;12.38;;
50906;SDS011;36882;27.680;85.304;2022-07-12T00:49:27;15.00;;;13.23;;
50906;SDS011;36882;27.680;85.304;2022-07-12T00:51:58;14.40;;;12.90;;
50906;SDS011;36882;27.680;85.304;2022-07-12T00:54:32;13.50;;;12.18;;
50906;SDS011;36882;27.680;85.304;2022-07-12T00:57:02;14.85;;;11.38;;
50906;SDS011;36882;27.680;85.304;2022-07-12T00:59:33;17.35;;;11.27;;
50906;SDS011;36882;27.680;85.304;2022-07-12T01:02:04;11.55;;;10.45;;
50906;SDS011;36882;27.680;85.304;2022-07-12T01:04:35;11.93;;;10.48;;
50906;SDS011;36882;27.680;85.304;2022-07-12T01:07:07;15.05;;;11.43;;
50906;SDS011;36882;27.680;85.304;2022-07-12T01:09:38;17.25;;;11.98;;
50906;SDS011;36882;27.680;85.304;2022-07-12T01:12:08;17.17;;;13.63;;
50906;SDS011;36882;27.680;85.304;2022-07-12T01:14:39;17.65;;;13.50;;
50906;SDS011;36882;27.680;85.304;2022-07-12T01:17:11;17.27;;;14.30;;
50906;SDS011;36882;27.680;85.304;2022-07-12T01:19:42;24.88;;;13.40;;
50906;SDS011;36882;27.680;85.304;2022-07-12T01:22:14;16.77;;;12.95;;
50906;SDS011;36882;27.680;85.304;2022-07-12T01:24:46;18.38;;;13.80;;
50906;SDS011;36882;27.680;85.304;2022-07-12T01:27:16;15.90;;;11.88;;
50906;SDS011;36882;27.680;85.304;2022-07-12T01:29:47;17.35;;;12.50;;
50906;SDS011;36882;27.680;85.304;2022-07-12T01:32:20;18.38;;;11.90;;
50906;SDS011;36882;27.680;85.304;2022-07-12T01:34:56;12.50;;;10.95;;
50906;SDS011;36882;27.680;85.304;2022-07-12T01:37:29;22.23;;;12.93;;
50906;SDS011;36882;27.680;85.304;2022-07-12T01:40:06;14.50;;;12.65;;
50906;SDS011;36882;27.680;85.304;2022-07-12T01:42:39;15.00;;;13.32;;
50906;SDS011;36882;27.680;85.304;2022-07-12T01:45:10;18.17;;;12.90;;
50906;SDS011;36882;27.680;85.304;2022-07-12T01:47:41;17.00;;;14.25;;
50906;SDS011;36882;27.680;85.304;2022-07-12T01:50:11;22.92;;;13.55;;
50906;SDS011;36882;27.680;85.304;2022-07-12T01:52:42;18.48;;;13.38;;
50906;SDS011;36882;27.680;85.304;2022-07-12T01:55:17;20.83;;;13.82;;
50906;SDS011;36882;27.680;85.304;2022-07-12T01:57:48;17.88;;;15.43;;
50906;SDS011;36882;27.680;85.304;2022-07-12T02:00:19;21.60;;;14.85;;
50906;SDS011;36882;27.680;85.304;2022-07-12T02:02:50;20.67;;;17.25;;
50906;SDS011;36882;27.680;85.304;2022-07-12T02:05:21;21.52;;;15.48;;
50906;SDS011;36882;27.680;85.304;2022-07-12T02:07:52;19.80;;;16.23;;
50906;SDS011;36882;27.680;85.304;2022-07-12T02:10:23;23.38;;;16.88;;
50906;SDS011;36882;27.680;85.304;2022-07-12T10:50:19;17.05;;;7.75;;
50906;SDS011;36882;27.680;85.304;2022-07-12T10:53:25;13.25;;;8.68;;
50906;SDS011;36882;27.680;85.304;2022-07-12T10:56:13;10.07;;;7.75;;
50906;SDS011;36882;27.680;85.304;2022-07-12T10:58:57;12.25;;;8.35;;
50906;SDS011;36882;27.680;85.304;2022-07-12T11:01:29;22.80;;;9.18;;
50906;SDS011;36882;27.680;85.304;2022-07-12T11:04:08;13.65;;;10.00;;
50906;SDS011;36882;27.680;85.304;2022-07-12T11:06:40;10.00;;;7.37;;
50906;SDS011;36882;27.680;85.304;2022-07-12T11:09:12;8.88;;;7.07;;
50906;SDS011;36882;27.680;85.304;2022-07-12T11:11:47;9.15;;;7.47;;
50906;SDS011;36882;27.680;85.304;2022-07-12T11:14:27;9.18;;;6.32;;
50906;SDS011;36882;27.680;85.304;2022-07-12T11:17:01;11.57;;;6.65;;
50906;SDS011;36882;27.680;85.304;2022-07-12T11:19:31;11.50;;;8.05;;
50906;SDS011;36882;27.680;85.304;2022-07-12T11:22:02;9.52;;;6.68;;
50906;SDS011;36882;27.680;85.304;2022-07-12T11:24:33;5.25;;;4.18;;
50906;SDS011;36882;27.680;85.304;2022-07-12T11:27:05;6.97;;;5.30;;
50906;SDS011;36882;27.680;85.304;2022-07-12T11:29:36;11.13;;;7.00;;
50906;SDS011;36882;27.680;85.304;2022-07-12T11:32:07;17.77;;;6.28;;
50906;SDS011;36882;27.680;85.304;2022-07-12T11:34:38;29.63;;;8.90;;
50906;SDS011;36882;27.680;85.304;2022-07-12T11:37:08;15.40;;;6.00;;
50906;SDS011;36882;27.680;85.304;2022-07-12T12:31:40;10.05;;;4.72;;
50906;SDS011;36882;27.680;85.304;2022-07-12T12:34:25;7.78;;;4.30;;
50906;SDS011;36882;27.680;85.304;2022-07-12T12:36:55;8.35;;;4.78;;
50906;SDS011;36882;27.680;85.304;2022-07-12T12:39:32;13.40;;;4.45;;
50906;SDS011;36882;27.680;85.304;2022-07-12T12:42:03;15.57;;;4.68;;
50906;SDS011;36882;27.680;85.304;2022-07-12T12:44:33;10.95;;;3.70;;
50906;SDS011;36882;27.680;85.304;2022-07-12T12:47:05;4.88;;;2.85;;
50906;SDS011;36882;27.680;85.304;2022-07-12T12:49:51;12.57;;;4.03;;
50906;SDS011;36882;27.680;85.304;2022-07-12T12:52:24;9.30;;;4.10;;
50906;SDS011;36882;27.680;85.304;2022-07-12T12:54:56;9.20;;;4.95;;
50906;SDS011;36882;27.680;85.304;2022-07-12T12:57:27;9.40;;;3.40;;
50906;SDS011;36882;27.680;85.304;2022-07-12T12:59:57;14.30;;;4.63;;
50906;SDS011;36882;27.680;85.304;2022-07-12T13:02:28;11.55;;;3.47;;
50906;SDS011;36882;27.680;85.304;2022-07-12T13:04:59;8.05;;;3.92;;
50906;SDS011;36882;27.680;85.304;2022-07-12T13:07:30;10.00;;;3.47;;
50906;SDS011;36882;27.680;85.304;2022-07-12T13:10:01;5.40;;;2.72;;
50906;SDS011;36882;27.680;85.304;2022-07-12T13:12:31;3.88;;;2.50;;
50906;SDS011;36882;27.680;85.304;2022-07-12T13:15:18;4.95;;;2.15;;
50906;SDS011;36882;27.680;85.304;2022-07-12T13:17:49;3.45;;;2.25;;
50906;SDS011;36882;27.680;85.304;2022-07-12T13:20:20;4.80;;;2.95;;
50906;SDS011;36882;27.680;85.304;2022-07-12T13:22:52;7.25;;;4.28;;
50906;SDS011;36882;27.680;85.304;2022-07-12T13:25:24;8.60;;;4.57;;
50906;SDS011;36882;27.680;85.304;2022-07-12T13:27:55;9.70;;;5.18;;
50906;SDS011;36882;27.680;85.304;2022-07-12T13:30:25;8.52;;;3.60;;
50906;SDS011;36882;27.680;85.304;2022-07-12T13:32:56;11.45;;;5.07;;
50906;SDS011;36882;27.680;85.304;2022-07-12T13:35:26;10.07;;;4.32;;
50906;SDS011;36882;27.680;85.304;2022-07-12T13:37:58;10.35;;;4.28;;
50906;SDS011;36882;27.680;85.304;2022-07-12T13:40:28;8.40;;;4.35;;
50906;SDS011;36882;27.680;85.304;2022-07-12T13:42:59;8.77;;;3.40;;
50906;SDS011;36882;27.680;85.304;2022-07-12T13:45:29;5.50;;;3.92;;
50906;SDS011;36882;27.680;85.304;2022-07-12T13:48:00;7.53;;;4.32;;
50906;SDS011;36882;27.680;85.304;2022-07-12T13:50:31;8.65;;;5.20;;
50906;SDS011;36882;27.680;85.304;2022-07-12T13:53:02;12.40;;;4.95;;
50906;SDS011;36882;27.680;85.304;2022-07-12T13:55:32;8.65;;;5.25;;
50906;SDS011;36882;27.680;85.304;2022-07-12T13:58:03;8.30;;;4.47;;
50906;SDS011;36882;27.680;85.304;2022-07-12T14:00:36;9.88;;;5.80;;
50906;SDS011;36882;27.680;85.304;2022-07-12T14:03:06;11.77;;;5.97;;
50906;SDS011;36882;27.680;85.304;2022-07-12T14:05:37;13.55;;;6.68;;
50906;SDS011;36882;27.680;85.304;2022-07-12T14:08:12;9.57;;;5.70;;
50906;SDS011;36882;27.680;85.304;2022-07-12T14:10:43;11.50;;;5.45;;
50906;SDS011;36882;27.680;85.304;2022-07-12T14:13:13;8.95;;;6.10;;
50906;SDS011;36882;27.680;85.304;2022-07-12T14:15:44;10.00;;;6.38;;
50906;SDS011;36882;27.680;85.304;2022-07-12T14:18:14;12.05;;;6.88;;
50906;SDS011;36882;27.680;85.304;2022-07-12T14:20:45;12.25;;;8.25;;
50906;SDS011;36882;27.680;85.304;2022-07-12T14:23:15;24.15;;;8.52;;
50906;SDS011;36882;27.680;85.304;2022-07-12T14:25:47;15.65;;;7.60;;
50906;SDS011;36882;27.680;85.304;2022-07-12T14:28:17;15.68;;;9.27;;
50906;SDS011;36882;27.680;85.304;2022-07-12T14:30:47;14.25;;;10.02;;
50906;SDS011;36882;27.680;85.304;2022-07-12T14:33:18;14.23;;;9.20;;
50906;SDS011;36882;27.680;85.304;2022-07-12T14:35:49;15.90;;;8.88;;
50906;SDS011;36882;27.680;85.304;2022-07-12T14:38:19;11.85;;;8.13;;
50906;SDS011;36882;27.680;85.304;2022-07-12T14:40:50;14.32;;;9.15;;
50906;SDS011;36882;27.680;85.304;2022-07-12T14:43:21;17.85;;;9.60;;
50906;SDS011;36882;27.680;85.304;2022-07-12T14:45:52;15.55;;;8.60;;
50906;SDS011;36882;27.680;85.304;2022-07-12T14:48:23;14.18;;;9.27;;
50906;SDS011;36882;27.680;85.304;2022-07-12T14:50:54;15.95;;;10.85;;
50906;SDS011;36882;27.680;85.304;2022-07-12T14:53:24;20.75;;;11.18;;
50906;SDS011;36882;27.680;85.304;2022-07-12T14:55:55;22.40;;;11.50;;
50906;SDS011;36882;27.680;85.304;2022-07-12T14:58:25;17.52;;;11.70;;
50906;SDS011;36882;27.680;85.304;2022-07-12T15:01:03;17.52;;;11.77;;
50906;SDS011;36882;27.680;85.304;2022-07-12T15:03:33;18.70;;;10.15;;
50906;SDS011;36882;27.680;85.304;2022-07-12T15:06:04;16.30;;;8.30;;
50906;SDS011;36882;27.680;85.304;2022-07-12T15:08:34;15.05;;;7.40;;
50906;SDS011;36882;27.680;85.304;2022-07-12T15:11:05;11.88;;;6.65;;
50906;SDS011;36882;27.680;85.304;2022-07-12T15:13:36;14.82;;;7.65;;
50906;SDS011;36882;27.680;85.304;2022-07-12T15:16:06;13.85;;;8.30;;
50906;SDS011;36882;27.680;85.304;2022-07-12T15:18:37;15.68;;;7.78;;
50906;SDS011;36882;27.680;85.304;2022-07-12T15:21:08;15.77;;;8.05;;
50906;SDS011;36882;27.680;85.304;2022-07-12T15:23:38;11.35;;;7.50;;
50906;SDS011;36882;27.680;85.304;2022-07-12T15:26:09;16.60;;;7.28;;
50906;SDS011;36882;27.680;85.304;2022-07-12T15:31:24;12.40;;;5.75;;
50906;SDS011;36882;27.680;85.304;2022-07-12T15:33:55;9.27;;;5.57;;
50906;SDS011;36882;27.680;85.304;2022-07-12T15:36:41;8.27;;;4.65;;
50906;SDS011;36882;27.680;85.304;2022-07-12T15:39:12;6.57;;;4.03;;
50906;SDS011;36882;27.680;85.304;2022-07-12T15:41:43;10.93;;;4.32;;
50906;SDS011;36882;27.680;85.304;2022-07-12T15:44:13;6.45;;;3.50;;
50906;SDS011;36882;27.680;85.304;2022-07-12T15:46:45;9.05;;;4.32;;
50906;SDS011;36882;27.680;85.304;2022-07-12T15:49:16;7.32;;;3.67;;
50906;SDS011;36882;27.680;85.304;2022-07-12T15:51:47;7.35;;;4.18;;
50906;SDS011;36882;27.680;85.304;2022-07-12T15:54:32;11.82;;;3.25;;
50906;SDS011;36882;27.680;85.304;2022-07-12T15:57:03;7.05;;;3.65;;
50906;SDS011;36882;27.680;85.304;2022-07-12T15:59:34;6.32;;;3.50;;
50906;SDS011;36882;27.680;85.304;2022-07-12T16:02:05;9.48;;;2.83;;
50906;SDS011;36882;27.680;85.304;2022-07-12T16:04:36;5.60;;;2.42;;
50906;SDS011;36882;27.680;85.304;2022-07-12T16:07:06;8.88;;;2.90;;
50906;SDS011;36882;27.680;85.304;2022-07-12T16:09:38;7.45;;;2.90;;
50906;SDS011;36882;27.680;85.304;2022-07-12T16:12:08;7.68;;;3.67;;
50906;SDS011;36882;27.680;85.304;2022-07-12T16:14:39;7.25;;;3.40;;
50906;SDS011;36882;27.680;85.304;2022-07-12T16:17:12;8.00;;;2.90;;
50906;SDS011;36882;27.680;85.304;2022-07-12T16:19:44;5.20;;;2.63;;
50906;SDS011;36882;27.680;85.304;2022-07-12T16:22:15;9.38;;;3.70;;
50906;SDS011;36882;27.680;85.304;2022-07-12T16:24:46;12.00;;;5.00;;
50906;SDS011;36882;27.680;85.304;2022-07-12T16:27:16;10.65;;;4.25;;
50906;SDS011;36882;27.680;85.304;2022-07-12T16:29:48;7.38;;;5.25;;
50906;SDS011;36882;27.680;85.304;2022-07-12T16:32:19;12.15;;;5.13;;
50906;SDS011;36882;27.680;85.304;2022-07-12T16:34:50;10.45;;;5.70;;
50906;SDS011;36882;27.680;85.304;2022-07-12T16:37:21;8.07;;;4.40;;
50906;SDS011;36882;27.680;85.304;2022-07-12T16:39:52;13.65;;;5.10;;
50906;SDS011;36882;27.680;85.304;2022-07-12T16:42:22;8.43;;;4.18;;
50906;SDS011;36882;27.680;85.304;2022-07-12T16:44:53;9.93;;;3.80;;
50906;SDS011;36882;27.680;85.304;2022-07-12T16:47:24;11.85;;;4.72;;
50906;SDS011;36882;27.680;85.304;2022-07-12T16:49:54;7.43;;;4.68;;
50906;SDS011;36882;27.680;85.304;2022-07-12T16:52:25;9.30;;;4.82;;
50906;SDS011;36882;27.680;85.304;2022-07-12T16:54:56;11.35;;;4.22;;
50906;SDS011;36882;27.680;85.304;2022-07-12T16:57:26;7.15;;;4.07;;
50906;SDS011;36882;27.680;85.304;2022-07-12T16:59:58;4.63;;;3.30;;
50906;SDS011;36882;27.680;85.304;2022-07-12T17:02:29;5.05;;;3.85;;
50906;SDS011;36882;27.680;85.304;2022-07-12T17:05:00;6.18;;;3.63;;
50906;SDS011;36882;27.680;85.304;2022-07-12T17:07:31;5.18;;;3.20;;
50906;SDS011;36882;27.680;85.304;2022-07-12T17:10:17;4.88;;;3.60;;
50906;SDS011;36882;27.680;85.304;2022-07-12T17:12:48;3.35;;;2.78;;
50906;SDS011;36882;27.680;85.304;2022-07-12T17:15:20;3.58;;;2.78;;
50906;SDS011;36882;27.680;85.304;2022-07-12T17:17:51;6.95;;;3.70;;
50906;SDS011;36882;27.680;85.304;2022-07-12T17:20:22;5.63;;;3.70;;
50906;SDS011;36882;27.680;85.304;2022-07-12T17:22:54;5.88;;;2.60;;
50906;SDS011;36882;27.680;85.304;2022-07-12T17:25:25;10.52;;;5.30;;
50906;SDS011;36882;27.680;85.304;2022-07-12T17:27:58;8.35;;;4.75;;
50906;SDS011;36882;27.680;85.304;2022-07-12T17:30:30;10.52;;;3.63;;
50906;SDS011;36882;27.680;85.304;2022-07-12T17:33:02;27.88;;;5.07;;
50906;SDS011;36882;27.680;85.304;2022-07-12T17:35:34;8.18;;;3.30;;
50906;SDS011;36882;27.680;85.304;2022-07-12T17:38:07;10.55;;;4.07;;
50906;SDS011;36882;27.680;85.304;2022-07-12T17:40:54;11.93;;;5.70;;
50906;SDS011;36882;27.680;85.304;2022-07-12T17:43:40;9.85;;;4.88;;
50906;SDS011;36882;27.680;85.304;2022-07-12T17:46:11;9.48;;;4.50;;
50906;SDS011;36882;27.680;85.304;2022-07-12T17:48:42;14.32;;;5.80;;
50906;SDS011;36882;27.680;85.304;2022-07-12T17:51:13;13.88;;;5.07;;
50906;SDS011;36882;27.680;85.304;2022-07-12T17:53:44;10.68;;;4.70;;
50906;SDS011;36882;27.680;85.304;2022-07-12T17:56:15;8.68;;;5.20;;
50906;SDS011;36882;27.680;85.304;2022-07-12T17:58:45;7.97;;;4.97;;
50906;SDS011;36882;27.680;85.304;2022-07-12T18:01:17;10.23;;;5.05;;
50906;SDS011;36882;27.680;85.304;2022-07-12T18:03:50;11.10;;;5.05;;
50906;SDS011;36882;27.680;85.304;2022-07-12T18:06:21;15.82;;;5.70;;
50906;SDS011;36882;27.680;85.304;2022-07-12T18:08:52;7.97;;;5.65;;
50906;SDS011;36882;27.680;85.304;2022-07-12T18:11:22;7.07;;;4.90;;
50906;SDS011;36882;27.680;85.304;2022-07-12T18:14:11;6.37;;;3.93;;
50906;SDS011;36882;27.680;85.304;2022-07-12T18:19:31;10.48;;;4.78;;
50906;SDS011;36882;27.680;85.304;2022-07-12T18:22:02;11.10;;;6.35;;
50906;SDS011;36882;27.680;85.304;2022-07-12T18:24:32;6.85;;;5.50;;
50906;SDS011;36882;27.680;85.304;2022-07-12T18:27:03;12.35;;;4.93;;
50906;SDS011;36882;27.680;85.304;2022-07-12T18:29:34;10.80;;;5.10;;
50906;SDS011;36882;27.680;85.304;2022-07-12T18:32:04;10.93;;;5.82;;
50906;SDS011;36882;27.680;85.304;2022-07-12T18:34:35;8.35;;;5.40;;
50906;SDS011;36882;27.680;85.304;2022-07-12T18:37:06;7.88;;;5.03;;
50906;SDS011;36882;27.680;85.304;2022-07-12T18:39:36;8.63;;;5.25;;
50906;SDS011;36882;27.680;85.304;2022-07-12T18:42:07;7.68;;;4.63;;
50906;SDS011;36882;27.680;85.304;2022-07-12T18:44:56;9.23;;;4.40;;
50906;SDS011;36882;27.680;85.304;2022-07-12T18:47:26;11.15;;;4.88;;
50906;SDS011;36882;27.680;85.304;2022-07-12T18:49:57;12.50;;;5.65;;
50906;SDS011;36882;27.680;85.304;2022-07-12T18:52:27;10.20;;;5.72;;
50906;SDS011;36882;27.680;85.304;2022-07-12T18:54:58;11.98;;;5.38;;
50906;SDS011;36882;27.680;85.304;2022-07-12T18:57:28;11.40;;;6.47;;
50906;SDS011;36882;27.680;85.304;2022-07-12T18:59:59;9.93;;;5.55;;
50906;SDS011;36882;27.680;85.304;2022-07-12T19:02:45;10.50;;;6.35;;
50906;SDS011;36882;27.680;85.304;2022-07-12T19:05:17;8.15;;;5.15;;
50906;SDS011;36882;27.680;85.304;2022-07-12T19:07:47;14.20;;;6.40;;
50906;SDS011;36882;27.680;85.304;2022-07-12T19:10:18;10.77;;;7.38;;
50906;SDS011;36882;27.680;85.304;2022-07-12T19:12:48;11.48;;;6.30;;
50906;SDS011;36882;27.680;85.304;2022-07-12T19:15:19;10.13;;;5.88;;
50906;SDS011;36882;27.680;85.304;2022-07-12T19:17:50;9.98;;;5.70;;
50906;SDS011;36882;27.680;85.304;2022-07-12T19:20:21;10.45;;;6.60;;
50906;SDS011;36882;27.680;85.304;2022-07-12T19:22:52;11.50;;;6.85;;
50906;SDS011;36882;27.680;85.304;2022-07-12T19:25:23;14.15;;;7.53;;
50906;SDS011;36882;27.680;85.304;2022-07-12T19:27:53;11.15;;;6.70;;
50906;SDS011;36882;27.680;85.304;2022-07-12T19:30:26;13.23;;;7.35;;
50906;SDS011;36882;27.680;85.304;2022-07-12T19:32:57;12.43;;;6.05;;
50906;SDS011;36882;27.680;85.304;2022-07-12T19:35:27;12.48;;;6.85;;
50906;SDS011;36882;27.680;85.304;2022-07-12T19:37:58;10.13;;;6.40;;
50906;SDS011;36882;27.680;85.304;2022-07-12T19:40:28;11.23;;;6.80;;
50906;SDS011;36882;27.680;85.304;2022-07-12T19:42:58;13.50;;;7.55;;
50906;SDS011;36882;27.680;85.304;2022-07-12T19:45:29;11.68;;;8.05;;
50906;SDS011;36882;27.680;85.304;2022-07-12T19:47:59;9.50;;;6.80;;
50906;SDS011;36882;27.680;85.304;2022-07-12T19:50:30;9.93;;;7.82;;
50906;SDS011;36882;27.680;85.304;2022-07-12T19:53:00;10.70;;;8.23;;
50906;SDS011;36882;27.680;85.304;2022-07-12T19:55:31;14.73;;;7.60;;
50906;SDS011;36882;27.680;85.304;2022-07-12T19:58:02;12.13;;;8.48;;
50906;SDS011;36882;27.680;85.304;2022-07-12T20:00:33;12.77;;;8.48;;
50906;SDS011;36882;27.680;85.304;2022-07-12T20:03:19;12.52;;;8.88;;
50906;SDS011;36882;27.680;85.304;2022-07-12T20:05:50;13.60;;;8.55;;
50906;SDS011;36882;27.680;85.304;2022-07-12T20:08:20;10.85;;;7.28;;
50906;SDS011;36882;27.680;85.304;2022-07-12T20:10:51;13.02;;;7.82;;
50906;SDS011;36882;27.680;85.304;2022-07-12T20:13:21;14.30;;;7.75;;
50906;SDS011;36882;27.680;85.304;2022-07-12T20:15:52;15.68;;;9.15;;
50906;SDS011;36882;27.680;85.304;2022-07-12T20:18:23;11.68;;;8.23;;
50906;SDS011;36882;27.680;85.304;2022-07-12T20:20:53;13.20;;;9.77;;
50906;SDS011;36882;27.680;85.304;2022-07-12T20:23:24;16.15;;;9.93;;
50906;SDS011;36882;27.680;85.304;2022-07-12T20:25:54;14.98;;;9.75;;
50906;SDS011;36882;27.680;85.304;2022-07-12T20:28:25;11.18;;;8.73;;
50906;SDS011;36882;27.680;85.304;2022-07-12T20:30:55;15.52;;;9.85;;
50906;SDS011;36882;27.680;85.304;2022-07-12T20:33:26;15.10;;;10.30;;
50906;SDS011;36882;27.680;85.304;2022-07-12T20:36:09;17.33;;;10.75;;
50906;SDS011;36882;27.680;85.304;2022-07-12T20:38:40;13.50;;;11.27;;
50906;SDS011;36882;27.680;85.304;2022-07-12T20:41:11;15.23;;;10.48;;
50906;SDS011;36882;27.680;85.304;2022-07-12T20:43:46;14.52;;;10.57;;
50906;SDS011;36882;27.680;85.304;2022-07-12T20:46:18;12.98;;;10.50;;
50906;SDS011;36882;27.680;85.304;2022-07-12T20:48:48;16.85;;;11.75;;
50906;SDS011;36882;27.680;85.304;2022-07-12T20:51:19;14.98;;;10.18;;
50906;SDS011;36882;27.680;85.304;2022-07-12T20:53:51;14.57;;;11.32;;
50906;SDS011;36882;27.680;85.304;2022-07-12T20:56:21;16.40;;;9.25;;
50906;SDS011;36882;27.680;85.304;2022-07-12T20:58:52;14.18;;;10.02;;
50906;SDS011;36882;27.680;85.304;2022-07-12T21:01:23;16.45;;;11.18;;
50906;SDS011;36882;27.680;85.304;2022-07-12T21:03:54;13.27;;;10.73;;
50906;SDS011;36882;27.680;85.304;2022-07-12T21:06:24;15.60;;;11.15;;
50906;SDS011;36882;27.680;85.304;2022-07-12T21:08:55;12.77;;;10.57;;
50906;SDS011;36882;27.680;85.304;2022-07-12T21:11:25;13.20;;;10.20;;
50906;SDS011;36882;27.680;85.304;2022-07-12T21:13:56;15.38;;;11.88;;
50906;SDS011;36882;27.680;85.304;2022-07-12T21:16:26;16.77;;;13.13;;
50906;SDS011;36882;27.680;85.304;2022-07-12T21:18:58;16.58;;;11.82;;
50906;SDS011;36882;27.680;85.304;2022-07-12T21:21:29;17.67;;;11.45;;
50906;SDS011;36882;27.680;85.304;2022-07-12T21:23:59;13.40;;;10.70;;
50906;SDS011;36882;27.680;85.304;2022-07-12T21:26:29;13.57;;;10.95;;
50906;SDS011;36882;27.680;85.304;2022-07-12T21:29:01;12.73;;;9.63;;
50906;SDS011;36882;27.680;85.304;2022-07-12T21:31:33;13.82;;;10.38;;
50906;SDS011;36882;27.680;85.304;2022-07-12T21:34:06;16.73;;;10.95;;
50906;SDS011;36882;27.680;85.304;2022-07-12T21:36:37;16.83;;;12.13;;
50906;SDS011;36882;27.680;85.304;2022-07-12T21:39:08;15.13;;;11.90;;
50906;SDS011;36882;27.680;85.304;2022-07-12T21:41:38;18.00;;;11.90;;
50906;SDS011;36882;27.680;85.304;2022-07-12T21:44:09;14.75;;;11.05;;
50906;SDS011;36882;27.680;85.304;2022-07-12T21:46:55;18.23;;;11.07;;
50906;SDS011;36882;27.680;85.304;2022-07-12T21:49:26;16.80;;;11.43;;
50906;SDS011;36882;27.680;85.304;2022-07-12T21:51:57;13.38;;;10.90;;
50906;SDS011;36882;27.680;85.304;2022-07-12T21:54:27;20.50;;;14.07;;
50906;SDS011;36882;27.680;85.304;2022-07-12T21:56:58;17.42;;;12.63;;
50906;SDS011;36882;27.680;85.304;2022-07-12T21:59:28;17.38;;;12.68;;
50906;SDS011;36882;27.680;85.304;2022-07-12T22:01:59;19.00;;;14.88;;
50906;SDS011;36882;27.680;85.304;2022-07-12T22:04:30;18.98;;;15.73;;
50906;SDS011;36882;27.680;85.304;2022-07-12T22:07:00;23.23;;;17.10;;
50906;SDS011;36882;27.680;85.304;2022-07-12T22:09:31;15.55;;;13.82;;
50906;SDS011;36882;27.680;85.304;2022-07-12T22:12:01;20.75;;;14.77;;
50906;SDS011;36882;27.680;85.304;2022-07-12T22:14:32;17.83;;;12.57;;
50906;SDS011;36882;27.680;85.304;2022-07-12T22:17:02;16.33;;;12.38;;
50906;SDS011;36882;27.680;85.304;2022-07-12T22:19:33;15.80;;;11.30;;
50906;SDS011;36882;27.680;85.304;2022-07-12T22:22:04;14.82;;;12.13;;
50906;SDS011;36882;27.680;85.304;2022-07-12T22:24:34;14.63;;;10.55;;
50906;SDS011;36882;27.680;85.304;2022-07-12T22:27:05;15.02;;;12.68;;
50906;SDS011;36882;27.680;85.304;2022-07-12T22:29:35;15.48;;;11.13;;
50906;SDS011;36882;27.680;85.304;2022-07-12T22:32:06;13.23;;;10.75;;
50906;SDS011;36882;27.680;85.304;2022-07-12T22:34:36;15.00;;;11.57;;
50906;SDS011;36882;27.680;85.304;2022-07-12T22:37:06;13.20;;;10.77;;
50906;SDS011;36882;27.680;85.304;2022-07-12T22:39:37;17.60;;;10.45;;
50906;SDS011;36882;27.680;85.304;2022-07-12T22:42:08;10.93;;;9.85;;
50906;SDS011;36882;27.680;85.304;2022-07-12T22:44:39;16.38;;;12.60;;
50906;SDS011;36882;27.680;85.304;2022-07-12T22:47:09;15.15;;;12.88;;
50906;SDS011;36882;27.680;85.304;2022-07-12T22:49:39;18.52;;;11.30;;
50906;SDS011;36882;27.680;85.304;2022-07-12T22:52:10;18.20;;;12.27;;
50906;SDS011;36882;27.680;85.304;2022-07-12T22:54:40;14.77;;;11.73;;
50906;SDS011;36882;27.680;85.304;2022-07-12T22:57:11;15.75;;;12.40;;
50906;SDS011;36882;27.680;85.304;2022-07-12T22:59:41;17.10;;;12.80;;
50906;SDS011;36882;27.680;85.304;2022-07-12T23:02:27;30.58;;;12.90;;
50906;SDS011;36882;27.680;85.304;2022-07-12T23:04:58;19.98;;;14.07;;
50906;SDS011;36882;27.680;85.304;2022-07-12T23:07:28;16.35;;;12.68;;
50906;SDS011;36882;27.680;85.304;2022-07-12T23:09:59;18.13;;;12.07;;
50906;SDS011;36882;27.680;85.304;2022-07-12T23:12:29;17.50;;;11.98;;
50906;SDS011;36882;27.680;85.304;2022-07-12T23:14:59;15.00;;;11.35;;
50906;SDS011;36882;27.680;85.304;2022-07-12T23:17:30;23.77;;;12.35;;
50906;SDS011;36882;27.680;85.304;2022-07-12T23:20:02;20.88;;;11.93;;
50906;SDS011;36882;27.680;85.304;2022-07-12T23:22:33;15.60;;;12.13;;
50906;SDS011;36882;27.680;85.304;2022-07-12T23:25:04;14.98;;;12.63;;
50906;SDS011;36882;27.680;85.304;2022-07-12T23:27:34;20.92;;;12.52;;
50906;SDS011;36882;27.680;85.304;2022-07-12T23:30:05;22.95;;;13.23;;
50906;SDS011;36882;27.680;85.304;2022-07-12T23:32:36;20.50;;;13.70;;
50906;SDS011;36882;27.680;85.304;2022-07-12T23:35:07;21.15;;;13.35;;
50906;SDS011;36882;27.680;85.304;2022-07-12T23:37:37;15.18;;;12.38;;
50906;SDS011;36882;27.680;85.304;2022-07-12T23:40:08;19.58;;;13.23;;
50906;SDS011;36882;27.680;85.304;2022-07-12T23:42:38;17.33;;;13.05;;
50906;SDS011;36882;27.680;85.304;2022-07-12T23:45:09;19.33;;;13.85;;
50906;SDS011;36882;27.680;85.304;2022-07-12T23:47:39;18.23;;;13.73;;
50906;SDS011;36882;27.680;85.304;2022-07-12T23:50:10;17.25;;;14.25;;
50906;SDS011;36882;27.680;85.304;2022-07-12T23:52:40;21.90;;;14.20;;
50906;SDS011;36882;27.680;85.304;2022-07-12T23:55:11;24.45;;;13.15;;
50906;SDS011;36882;27.680;85.304;2022-07-12T23:57:41;23.58;;;14.57;;
